• Join FlightAware (Why Join?)
  • Login
  • US Flag 
04:29PM EDT


 

Airport Tracker/Info


-or-


 

Live Flight TrackerFlight Track Log ✈ USC105 ✈ 09-Apr-2013 ✈ KYIP - KDPA

Flight Track Log - Related Links

Times and Time Zones

All times are in EDT time to prevent confusion due to time zone crossing. See the USC105 flight status page for this flight to view local times or setup timezone preferences in your user account.

Time Position Orientation Groundspeed Altitude Reporting Facility
EDT Latitude Longitude Course Direction KTS MPH feet Rate Location/Type
12:15AM 42.2422 -83.5703 276° West 130 150 1,500  Level Cleveland Center
12:16AM 42.2364 -83.6261 262° West 158 182 2,100 660 Climbing Cleveland Center
12:17AM 42.2350 -83.6794 268° West 142 163 2,900 600 Climbing Cleveland Center
12:18AM 42.2378 -83.7356 274° West 148 170 3,400 540 Climbing Cleveland Center
12:19AM 42.2342 -83.7889 265° West 136 157 4,100 600 Climbing Cleveland Center
12:20AM 42.2167 -83.8317 270° West  Level FlightAware Approximate
12:20AM 42.2306 -83.8392 264° West 139 160 4,700  Level Cleveland Center
12:21AM 42.2250 -83.8919 262° West 137 158 5,200 420 Climbing Cleveland Center
12:23AM 42.2267 -83.9831 271° West 142 163 6,000 240 Climbing Chicago Center
12:24AM 42.2247 -84.0431 268° West 149 171 5,900 -60 Descending Chicago Center
12:25AM 42.2206 -84.1044 265° West 157 181 5,900  Level Chicago Center
12:26AM 42.2169 -84.1625 265° West 158 182 5,900  Level Chicago Center
12:27AM 42.2128 -84.2206 264° West 157 181 5,900  Level Chicago Center
12:28AM 42.2075 -84.2794 263° West 155 178 5,900  Level Chicago Center
12:29AM 42.2042 -84.3372 266° West 155 178 5,900  Level Chicago Center
12:30AM 42.2006 -84.3958 265° West 157 181 5,900  Level Chicago Center
12:31AM 42.1975 -84.4550 266° West 158 182 5,900  Level Chicago Center
12:32AM 42.1931 -84.5125 264° West 156 180 5,900  Level Chicago Center
12:33AM 42.1911 -84.5817 268° West 159 183 5,900  Level Chicago Center
12:34AM 42.1869 -84.6406 265° West 158 182 5,900  Level Chicago Center
12:35AM 42.1825 -84.6981 264° West 157 181 5,900  Level Chicago Center
12:36AM 42.1783 -84.7569 265° West 158 182 5,900  Level Chicago Center
12:37AM 42.1753 -84.8161 266° West 159 183 5,900  Level Chicago Center
12:38AM 42.1714 -84.8753 265° West 160 184 5,900  Level Chicago Center
12:39AM 42.1678 -84.9336 265° West 158 182 5,900  Level Chicago Center
12:40AM 42.1636 -84.9925 265° West 158 182 5,900  Level Chicago Center
12:41AM 42.1608 -85.0511 266° West 158 182 5,900  Level Chicago Center
12:42AM 42.1569 -85.1108 265° West 159 183 5,900  Level Chicago Center
12:43AM 42.1519 -85.1697 263° West 159 183 5,900  Level Chicago Center
12:44AM 42.1483 -85.2289 265° West 159 183 5,900  Level Chicago Center
12:45AM 42.1450 -85.2894 266° West 162 186 5,900  Level Chicago Center
12:46AM 42.1411 -85.3481 265° West 160 184 5,900  Level Chicago Center
12:47AM 42.1367 -85.4083 264° West 162 186 5,900  Level Chicago Center
12:48AM 42.1311 -85.4803 264° West 162 186 5,900  Level Chicago Center
12:49AM 42.1275 -85.5397 265° West 161 185 5,900  Level Chicago Center
12:50AM 42.1233 -85.6003 265° West 162 186 5,900  Level Chicago Center
12:51AM 42.1183 -85.6600 264° West 162 186 5,900  Level Chicago Center
12:52AM 42.1150 -85.7197 266° West 161 185 5,900  Level Chicago Center
12:53AM 42.1108 -85.7792 265° West 160 184 5,900  Level Chicago Center
12:54AM 42.1061 -85.8383 264° West 160 184 5,900  Level Chicago Center
12:55AM 42.1019 -85.8986 265° West 162 186 5,900  Level Chicago Center
12:56AM 42.0975 -85.9594 264° West 164 189 5,900  Level Chicago Center
12:57AM 42.0928 -86.0186 264° West 161 185 5,900  Level Chicago Center
12:58AM 42.0881 -86.0800 264° West 164 189 5,900  Level Chicago Center
12:59AM 42.0842 -86.1397 265° West 162 186 5,900  Level Chicago Center
01:00AM 42.0800 -86.2008 265° West 163 188 5,900  Level Chicago Center
01:01AM 42.0747 -86.2617 263° West 164 189 5,900  Level Chicago Center
01:02AM 42.0703 -86.3222 264° West 163 188 5,900  Level Chicago Center
01:03AM 42.0656 -86.3831 264° West 164 189 5,900  Level Chicago Center
01:04AM 42.0606 -86.4450 264° West 166 191 5,900  Level Chicago Center
01:05AM 42.0569 -86.5061 265° West 165 190 5,900  Level Chicago Center
01:06AM 42.0500 -86.5797 263° West 166 191 5,900  Level Chicago Center
01:07AM 42.0458 -86.6408 265° West 165 190 5,900  Level Chicago Center
01:08AM 42.0417 -86.7008 265° West 163 188 5,900  Level Chicago Center
01:09AM 42.0361 -86.7633 263° West 164 189 5,900  Level Chicago Center
01:10AM 42.0317 -86.8222 264° West 161 185 5,900  Level Chicago Center
01:11AM 42.0261 -86.8817 263° West 161 185 5,900  Level Chicago Center
01:12AM 42.0225 -86.9417 265° West 162 186 5,900  Level Chicago Center
01:13AM 42.0169 -87.0008 263° West 160 184 5,900  Level Chicago Center
01:14AM 42.0119 -87.0603 264° West 161 185 5,900  Level Chicago Center
01:15AM 42.0075 -87.1211 264° West 164 189 5,900  Level Chicago Center
01:16AM 42.0019 -87.1825 263° West 165 190 5,900  Level Chicago Center
01:17AM 41.9972 -87.2428 264° West 165 190 5,900  Level Chicago Center
01:18AM 41.9919 -87.3033 263° West 164 189 5,900  Level Chicago Center
01:19AM 41.9867 -87.3633 263° West 164 189 5,900  Level Chicago Center
01:20AM 41.9833 -87.3833 257° West 164 189 5,900  Level Chicago TRACON
01:21AM 41.9833 -87.4500 270° West 162 186 5,900  Level Chicago TRACON
01:22AM 41.9667 -87.5167 251° West 164 189 5,900  Level Chicago TRACON
01:23AM 41.9656 -87.6025 269° West 163 188 5,900  Level Chicago Center
01:24AM 41.9589 -87.6744 263° West 163 188 5,900  Level Chicago Center
01:25AM 41.9547 -87.7344 265° West 163 188 5,900  Level Chicago Center
01:27AM 41.9500 -87.8000 264° West 163 188 5,900  Level Chicago TRACON
01:28AM 41.9139 -87.8950 243° Southwest 153 176 5,900  Level Chicago Center
01:29AM 41.8936 -87.9419 240° Southwest 148 170 5,900  Level Chicago Center
01:30AM 41.8833 -87.9667 241° Southwest 145 167 5,900  Level Chicago TRACON
01:30AM 41.8664 -87.9764 203° Southwest 147 169 5,900 -300 Level Chicago Center
01:31AM 41.8311 -88.0061 212° Southwest 144 166 5,500 -900 Descending Chicago Center
01:32AM 41.7964 -88.0444 219° Southwest 151 174 4,200 -1,320 Descending Chicago Center
01:33AM 41.7561 -88.0858 217° Southwest 167 192 2,900 -660 Descending Chicago Center
01:34AM 41.7186 -88.1267 219° Southwest 174 200 2,900  Level Chicago Center
01:35AM 41.7058 -88.1725 250° West 160 184 2,900  Level Chicago Center
01:36AM 41.7106 -88.2275 277° West 154 177 2,900  Level Chicago Center
01:37AM 41.7153 -88.2808 277° West 150 173 2,900  Level Chicago Center
01:38AM 41.7603 -88.2953 347° North 167 192 2,900 -240 Level Chicago Center
01:39AM 41.8067 -88.2822 12° North 169 194 2,500 -600 Descending Chicago Center
01:40AM 41.8461 -88.2717 11° North 154 177 1,800 -660 Descending Chicago Center
01:41AM 41.8775 -88.2597 16° North 113 130 1,200 -360 Descending Chicago Center
01:42AM 41.9042 -88.2517 13° North 111 128 1,100 -120 Descending Chicago Center